createdAt,value
2022-07-25T00:00:14.151Z,22.4
2022-07-25T00:01:21.004Z,22.4
2022-07-25T00:02:16.708Z,22.36
2022-07-25T00:03:19.107Z,22.44
2022-07-25T00:04:19.397Z,22.4
2022-07-25T00:05:18.078Z,22.34
2022-07-25T00:06:23.896Z,22.31
2022-07-25T00:07:19.439Z,22.41
2022-07-25T00:08:19.870Z,22.34
2022-07-25T00:09:21.377Z,22.33
2022-07-25T00:10:22.308Z,22.4
2022-07-25T00:11:22.518Z,22.4
2022-07-25T00:12:23.021Z,22.43
2022-07-25T00:13:22.954Z,22.26
2022-07-25T00:14:23.168Z,22.28
2022-07-25T00:15:24.096Z,22.31
2022-07-25T00:16:25.477Z,22.28
2022-07-25T00:17:25.272Z,22.25
2022-07-25T00:18:26.575Z,22.25
2022-07-25T00:19:27.089Z,22.25
2022-07-25T00:20:27.313Z,22.16
2022-07-25T00:21:27.960Z,22.19
2022-07-25T00:22:28.169Z,22.23
2022-07-25T00:23:29.390Z,22.26
2022-07-25T00:24:29.299Z,22.15
2022-07-25T00:25:30.037Z,22.22
2022-07-25T00:26:30.265Z,22.1
2022-07-25T00:27:31.034Z,22.21
2022-07-25T00:28:32.063Z,22.12
2022-07-25T00:29:32.003Z,22.22
2022-07-25T00:30:32.510Z,22.18
2022-07-25T00:31:33.767Z,22.12
2022-07-25T00:32:34.372Z,22.07
2022-07-25T00:33:34.582Z,22.06
2022-07-25T00:34:34.508Z,22.04
2022-07-25T00:35:35.010Z,22.1
2022-07-25T00:36:35.218Z,22.06
2022-07-25T00:37:35.573Z,22.08
2022-07-25T00:38:36.609Z,22.07
2022-07-25T00:39:41.632Z,22.04
2022-07-25T00:40:38.134Z,22.04
2022-07-25T00:41:38.768Z,22.12
2022-07-25T00:42:39.978Z,22.12
2022-07-25T00:43:40.480Z,22.03
2022-07-25T00:44:40.709Z,22.07
2022-07-25T00:45:41.211Z,22.04
2022-07-25T00:46:41.738Z,21.99
2022-07-25T00:47:41.537Z,22.03
2022-07-25T00:48:42.570Z,21.99
2022-07-25T00:49:43.397Z,21.97
2022-07-25T00:50:44.031Z,21.92
2022-07-25T00:51:44.529Z,21.94
2022-07-25T00:52:45.281Z,21.96
2022-07-25T00:53:46.495Z,21.91
2022-07-25T00:54:46.994Z,21.85
2022-07-25T00:55:47.234Z,21.89
2022-07-25T00:56:47.479Z,21.89
2022-07-25T00:57:47.683Z,21.88
2022-07-25T00:58:47.700Z,21.92
2022-07-25T00:59:48.900Z,21.84
2022-07-25T01:00:48.824Z,21.84
2022-07-25T01:01:49.609Z,21.85
2022-07-25T01:02:51.490Z,21.81
2022-07-25T01:03:51.831Z,21.88
2022-07-25T01:04:52.246Z,21.84
2022-07-25T01:05:59.315Z,21.84
2022-07-25T01:06:54.539Z,21.81
2022-07-25T01:07:54.749Z,21.74
2022-07-25T01:08:55.349Z,21.74
2022-07-25T01:09:54.986Z,21.69
2022-07-25T01:10:56.002Z,21.74
2022-07-25T01:11:55.936Z,21.69
2022-07-25T01:12:56.575Z,21.65
2022-07-25T01:13:57.078Z,21.7
2022-07-25T01:14:57.398Z,21.69
2022-07-25T01:15:58.517Z,21.69
2022-07-25T01:16:58.643Z,21.69
2022-07-25T01:18:00.185Z,21.69
2022-07-25T01:18:59.221Z,21.75
2022-07-25T01:19:59.880Z,21.74
2022-07-25T01:20:59.822Z,21.69
2022-07-25T01:22:00.343Z,21.62
2022-07-25T01:23:00.847Z,21.66
2022-07-25T01:24:01.352Z,21.63
2022-07-25T01:25:02.216Z,21.65
2022-07-25T01:26:02.720Z,21.65
2022-07-25T01:27:02.927Z,21.66
2022-07-25T01:28:03.167Z,21.65
2022-07-25T01:29:03.196Z,21.65
2022-07-25T01:30:04.426Z,21.66
2022-07-25T01:31:04.933Z,21.62
2022-07-25T01:32:05.596Z,21.65
2022-07-25T01:33:12.612Z,21.65
2022-07-25T01:34:07.842Z,21.68
2022-07-25T01:35:08.126Z,21.6
2022-07-25T01:36:08.084Z,21.65
2022-07-25T01:37:09.308Z,21.58
2022-07-25T01:38:09.814Z,21.65
2022-07-25T01:39:09.925Z,21.54
2022-07-25T01:40:10.435Z,21.65
2022-07-25T01:41:10.944Z,21.58
2022-07-25T01:42:11.816Z,21.6
2022-07-25T01:43:12.042Z,21.6
2022-07-25T01:44:13.077Z,21.63
2022-07-25T01:45:13.276Z,21.56
2022-07-25T01:46:13.669Z,21.6
2022-07-25T01:47:14.440Z,21.63
2022-07-25T01:48:14.659Z,21.48
2022-07-25T01:49:15.535Z,21.5
2022-07-25T01:50:15.227Z,21.44
2022-07-25T01:51:20.942Z,21.45
2022-07-25T01:52:16.608Z,21.41
2022-07-25T01:53:17.481Z,21.44
2022-07-25T01:54:18.093Z,21.45
2022-07-25T01:55:18.356Z,21.41
2022-07-25T01:56:23.004Z,21.44
2022-07-25T01:57:19.171Z,21.4
2022-07-25T01:58:21.685Z,21.38
2022-07-25T01:59:20.189Z,21.45
2022-07-25T02:00:21.156Z,21.45
2022-07-25T02:01:23.647Z,21.48
2022-07-25T02:02:22.868Z,21.48
2022-07-25T02:03:23.369Z,21.51
2022-07-25T02:04:23.792Z,21.48
2022-07-25T02:05:24.211Z,21.43
2022-07-25T02:06:25.409Z,21.48
2022-07-25T02:07:25.962Z,21.48
2022-07-25T02:08:26.461Z,21.44
2022-07-25T02:09:27.195Z,21.48
2022-07-25T02:10:27.703Z,21.48
2022-07-25T02:11:28.202Z,21.45
2022-07-25T02:12:28.715Z,21.43
2022-07-25T02:13:28.917Z,21.44
2022-07-25T02:14:29.850Z,21.4
2022-07-25T02:15:30.079Z,21.43
2022-07-25T02:16:35.394Z,21.4
2022-07-25T02:17:31.147Z,21.38
2022-07-25T02:18:31.694Z,21.4
2022-07-25T02:19:32.018Z,21.41
2022-07-25T02:20:32.240Z,21.38
2022-07-25T02:21:33.448Z,21.4
2022-07-25T02:22:33.656Z,21.4
2022-07-25T02:23:34.161Z,21.41
2022-07-25T02:24:34.089Z,21.4
2022-07-25T02:25:34.594Z,21.4
2022-07-25T02:26:35.094Z,21.41
2022-07-25T02:27:35.043Z,21.38
2022-07-25T02:28:36.250Z,21.37
2022-07-25T02:29:36.081Z,21.44
2022-07-25T02:30:37.036Z,21.38
2022-07-25T02:31:37.414Z,21.35
2022-07-25T02:32:38.057Z,21.41
2022-07-25T02:33:38.714Z,21.38
2022-07-25T02:34:39.915Z,21.38
2022-07-25T02:35:39.826Z,21.43
2022-07-25T02:36:40.054Z,21.38
2022-07-25T02:37:40.552Z,21.38
2022-07-25T02:38:40.757Z,21.4
2022-07-25T02:39:40.935Z,21.43
2022-07-25T02:40:41.856Z,21.4
2022-07-25T02:41:42.787Z,21.38
2022-07-25T02:42:43.144Z,21.41
2022-07-25T02:43:44.045Z,21.45
2022-07-25T02:44:44.249Z,21.38
2022-07-25T02:45:45.328Z,21.41
2022-07-25T02:46:47.403Z,21.38
2022-07-25T02:47:46.892Z,21.38
2022-07-25T02:48:46.999Z,21.37
2022-07-25T02:49:47.782Z,21.45
2022-07-25T02:50:48.709Z,21.41
2022-07-25T02:51:48.930Z,21.44
2022-07-25T02:52:49.850Z,21.47
2022-07-25T02:54:03.290Z,21.4
2022-07-25T02:54:50.963Z,21.41
2022-07-25T02:55:51.446Z,21.44
2022-07-25T02:56:51.666Z,21.33
2022-07-25T02:57:51.310Z,21.38
2022-07-25T02:58:52.809Z,21.38
2022-07-25T02:59:53.826Z,21.44
2022-07-25T03:00:54.418Z,21.41
2022-07-25T03:01:55.811Z,21.37
2022-07-25T03:02:55.019Z,21.35
2022-07-25T03:03:55.767Z,21.38
2022-07-25T03:04:55.696Z,21.38
2022-07-25T03:05:56.604Z,21.4
2022-07-25T03:06:57.805Z,21.35
2022-07-25T03:07:57.725Z,21.35
2022-07-25T03:09:00.207Z,21.33
2022-07-25T03:09:58.969Z,21.4
2022-07-25T03:11:00.255Z,21.33
2022-07-25T03:12:00.476Z,21.33
2022-07-25T03:13:00.701Z,21.33
2022-07-25T03:14:01.109Z,21.4
2022-07-25T03:15:02.085Z,21.35
2022-07-25T03:16:02.587Z,21.33
2022-07-25T03:17:03.070Z,21.38
2022-07-25T03:18:03.697Z,21.3
2022-07-25T03:19:04.254Z,21.3
2022-07-25T03:20:04.860Z,21.32
2022-07-25T03:21:05.362Z,21.35
2022-07-25T03:22:05.287Z,21.32
2022-07-25T03:23:06.218Z,21.3
2022-07-25T03:24:07.121Z,21.26
2022-07-25T03:25:22.062Z,21.28
2022-07-25T03:26:07.609Z,21.29
2022-07-25T03:27:07.829Z,21.3
2022-07-25T03:28:08.334Z,21.3
2022-07-25T03:29:08.558Z,21.26
2022-07-25T03:30:08.593Z,21.29
2022-07-25T03:31:09.798Z,21.25
2022-07-25T03:32:10.319Z,21.29
2022-07-25T03:33:10.385Z,21.28
2022-07-25T03:34:11.736Z,21.28
2022-07-25T03:35:12.236Z,21.29
2022-07-25T03:36:12.441Z,21.28
2022-07-25T03:37:12.661Z,21.32
2022-07-25T03:38:13.158Z,21.28
2022-07-25T03:39:13.361Z,21.29
2022-07-25T03:40:13.891Z,21.33
2022-07-25T03:41:13.318Z,21.23
2022-07-25T03:42:14.197Z,21.28
2022-07-25T03:43:14.937Z,21.3
2022-07-25T03:44:16.276Z,21.25
2022-07-25T03:45:15.488Z,21.2
2022-07-25T03:46:17.221Z,21.28
2022-07-25T03:47:26.738Z,21.15
2022-07-25T03:48:17.963Z,21.17
2022-07-25T03:49:19.324Z,21.22
2022-07-25T03:50:19.363Z,21.23
2022-07-25T03:51:20.600Z,21.14
2022-07-25T03:52:20.534Z,21.22
2022-07-25T03:53:21.172Z,21.19
2022-07-25T03:54:22.181Z,21.15
2022-07-25T03:55:23.426Z,21.1
2022-07-25T03:56:24.044Z,21.08
2022-07-25T03:57:24.385Z,21.07
2022-07-25T03:58:25.317Z,21.1
2022-07-25T03:59:25.945Z,21.13
2022-07-25T04:00:27.692Z,21.11
2022-07-25T04:01:28.032Z,21.15
2022-07-25T04:02:29.024Z,21.13
2022-07-25T04:03:28.594Z,21.14
2022-07-25T04:04:29.534Z,21.14
2022-07-25T04:05:29.466Z,21.15
2022-07-25T04:06:30.838Z,21.08
2022-07-25T04:07:31.053Z,21.05
2022-07-25T04:08:31.900Z,21.05
2022-07-25T04:09:38.075Z,21.05
2022-07-25T04:10:33.416Z,21.08
2022-07-25T04:11:33.642Z,21.1
2022-07-25T04:12:34.140Z,21.05
2022-07-25T04:13:34.342Z,21.03
2022-07-25T04:14:34.257Z,21.03
2022-07-25T04:15:36.961Z,21.1
2022-07-25T04:16:37.450Z,21.08
2022-07-25T04:17:39.950Z,21.04
2022-07-25T04:18:40.643Z,21.04
2022-07-25T04:19:38.758Z,21.03
2022-07-25T04:20:37.821Z,21.13
2022-07-25T04:21:39.025Z,21.05
2022-07-25T04:22:47.045Z,21.13
2022-07-25T04:23:40.146Z,21.17
2022-07-25T04:24:40.074Z,21.14
2022-07-25T04:25:40.692Z,21.14
2022-07-25T04:26:40.646Z,21.1
2022-07-25T04:27:41.168Z,21.13
2022-07-25T04:28:41.664Z,21.1
2022-07-25T04:29:42.169Z,21.14
2022-07-25T04:30:42.737Z,21.14
2022-07-25T04:31:43.213Z,21.11
2022-07-25T04:32:43.927Z,21.2
2022-07-25T04:33:44.482Z,21.1
2022-07-25T04:34:45.395Z,21.08
2022-07-25T04:35:45.901Z,21.15
2022-07-25T04:36:46.405Z,21.13
2022-07-25T04:37:46.908Z,21.13
2022-07-25T04:38:47.411Z,21.17
2022-07-25T04:39:47.622Z,21.15
2022-07-25T04:40:47.928Z,21.19
2022-07-25T04:41:47.553Z,21.2
2022-07-25T04:42:48.763Z,21.19
2022-07-25T04:43:54.130Z,21.11
2022-07-25T04:44:49.786Z,21.19
2022-07-25T04:45:51.179Z,21.17
2022-07-25T04:46:51.902Z,21.19
2022-07-25T04:47:52.823Z,21.23
2022-07-25T04:48:54.047Z,21.25
2022-07-25T04:49:53.575Z,21.26
2022-07-25T04:50:53.748Z,21.29
2022-07-25T04:51:54.615Z,21.28
2022-07-25T04:52:55.131Z,21.33
2022-07-25T04:53:55.355Z,21.37
2022-07-25T04:54:55.909Z,21.4
2022-07-25T04:55:56.135Z,21.33
2022-07-25T04:56:56.384Z,21.4
2022-07-25T04:57:56.596Z,21.41
2022-07-25T04:59:03.231Z,21.41
2022-07-25T04:59:57.355Z,21.48
2022-07-25T05:00:58.061Z,21.51
2022-07-25T05:01:58.332Z,21.51
2022-07-25T05:02:58.697Z,21.54
2022-07-25T05:03:58.609Z,21.51
2022-07-25T05:05:03.639Z,21.53
2022-07-25T05:05:59.746Z,21.6
2022-07-25T05:06:59.833Z,21.6
2022-07-25T05:08:01.045Z,21.65
2022-07-25T05:09:01.253Z,21.59
2022-07-25T05:10:01.462Z,21.63
2022-07-25T05:11:01.757Z,21.62
2022-07-25T05:12:03.213Z,21.54
2022-07-25T05:13:02.341Z,21.65
2022-07-25T05:14:04.446Z,21.65
2022-07-25T05:15:04.181Z,21.7
2022-07-25T05:16:04.849Z,21.65
2022-07-25T05:17:05.224Z,21.77
2022-07-25T05:18:05.755Z,21.8
2022-07-25T05:19:05.981Z,21.83
2022-07-25T05:20:06.426Z,21.84
2022-07-25T05:21:06.443Z,21.81
2022-07-25T05:22:08.045Z,21.94
2022-07-25T05:23:07.682Z,21.84
2022-07-25T05:24:09.811Z,21.96
2022-07-25T05:25:08.921Z,22.01
2022-07-25T05:26:08.849Z,22.06
2022-07-25T05:27:09.776Z,22.08
2022-07-25T05:28:10.138Z,22.03
2022-07-25T05:29:11.370Z,22.19
2022-07-25T05:30:11.045Z,22.16
2022-07-25T05:31:12.012Z,22.16
2022-07-25T05:32:12.805Z,22.25
2022-07-25T05:33:13.338Z,22.19
2022-07-25T05:34:14.083Z,22.3
2022-07-25T05:35:14.291Z,22.41
2022-07-25T05:36:14.792Z,22.3
2022-07-25T05:37:15.000Z,22.33
2022-07-25T05:38:15.225Z,22.4
2022-07-25T05:39:16.254Z,22.41
2022-07-25T05:40:16.485Z,22.4
2022-07-25T05:41:17.497Z,22.52
2022-07-25T05:42:17.723Z,22.55
2022-07-25T05:43:18.233Z,22.55
2022-07-25T05:44:18.138Z,22.59
2022-07-25T05:45:19.083Z,22.59
2022-07-25T05:46:19.838Z,22.62
2022-07-25T05:47:20.643Z,22.68
2022-07-25T05:48:21.150Z,22.73
2022-07-25T05:49:21.623Z,22.76
2022-07-25T05:50:22.272Z,22.74
2022-07-25T05:51:27.656Z,22.76
2022-07-25T05:52:22.972Z,22.77
2022-07-25T05:53:22.600Z,22.86
2022-07-25T05:54:23.232Z,22.99
2022-07-25T05:55:23.892Z,22.99
2022-07-25T05:56:24.822Z,22.93
2022-07-25T05:57:24.730Z,22.93
2022-07-25T05:58:30.281Z,23.02
2022-07-25T05:59:25.266Z,22.96
2022-07-25T06:00:25.765Z,23.08
2022-07-25T06:01:26.235Z,23.16
2022-07-25T06:02:26.875Z,23.14
2022-07-25T06:03:27.552Z,23.11
2022-07-25T06:04:32.963Z,23.26
2022-07-25T06:05:27.601Z,23.26
2022-07-25T06:06:28.217Z,23.21
2022-07-25T06:07:29.170Z,23.36
2022-07-25T06:08:29.803Z,23.4
2022-07-25T06:09:29.909Z,23.42
2022-07-25T06:10:30.416Z,23.37
2022-07-25T06:11:31.853Z,23.49
2022-07-25T06:12:31.210Z,23.47
2022-07-25T06:13:35.095Z,23.47
2022-07-25T06:14:32.936Z,23.58
2022-07-25T06:15:34.225Z,23.59
2022-07-25T06:16:33.235Z,23.58
2022-07-25T06:17:38.019Z,23.71
2022-07-25T06:18:34.238Z,23.66
2022-07-25T06:19:34.176Z,23.73
2022-07-25T06:20:34.814Z,23.76
2022-07-25T06:21:36.151Z,23.81
2022-07-25T06:22:36.378Z,23.84
2022-07-25T06:23:37.361Z,23.91
2022-07-25T06:24:37.873Z,23.94
2022-07-25T06:25:38.752Z,24.06
2022-07-25T06:26:38.880Z,24.04
2022-07-25T06:27:39.382Z,24.16
2022-07-25T06:28:39.588Z,24.19
2022-07-25T06:29:39.819Z,24.16
2022-07-25T06:30:40.453Z,24.29
2022-07-25T06:31:42.016Z,24.36
2022-07-25T06:32:41.714Z,24.37
2022-07-25T06:33:41.944Z,24.47
2022-07-25T06:34:42.005Z,24.5
2022-07-25T06:35:43.215Z,24.53
2022-07-25T06:36:43.424Z,24.48
2022-07-25T06:37:43.339Z,24.58
2022-07-25T06:38:44.278Z,24.53
2022-07-25T06:39:50.963Z,24.59
2022-07-25T06:40:46.616Z,24.69
2022-07-25T06:41:46.977Z,24.69
2022-07-25T06:42:47.256Z,24.89
2022-07-25T06:43:47.734Z,24.79
2022-07-25T06:44:48.948Z,24.86
2022-07-25T06:45:49.879Z,24.89
2022-07-25T06:46:51.441Z,24.96
2022-07-25T06:47:50.641Z,25
2022-07-25T06:48:51.740Z,25.04
2022-07-25T06:49:51.953Z,25.07
2022-07-25T06:50:53.242Z,25.07
2022-07-25T06:51:53.818Z,25.21
2022-07-25T06:52:55.051Z,25.24
2022-07-25T06:53:55.991Z,25.18
2022-07-25T06:54:56.581Z,25.36
2022-07-25T06:55:56.592Z,25.36
2022-07-25T06:56:56.788Z,25.4
2022-07-25T06:57:57.301Z,25.52
2022-07-25T06:58:57.515Z,25.49
2022-07-25T06:59:57.444Z,25.54
2022-07-25T07:00:58.298Z,25.55
2022-07-25T07:01:58.881Z,25.67
2022-07-25T07:02:59.614Z,25.62
2022-07-25T07:04:00.171Z,25.74
2022-07-25T07:05:00.596Z,25.83
2022-07-25T07:06:01.130Z,25.92
2022-07-25T07:07:02.059Z,25.78
2022-07-25T07:08:02.707Z,25.92
2022-07-25T07:09:03.083Z,25.96
2022-07-25T07:10:04.620Z,25.98
2022-07-25T07:11:05.573Z,26.06
2022-07-25T07:12:05.582Z,26.11
2022-07-25T07:13:08.096Z,26.15
2022-07-25T07:14:07.563Z,26.29
2022-07-25T07:15:07.247Z,26.24
2022-07-25T07:16:07.784Z,26.36
2022-07-25T07:17:08.187Z,26.39
2022-07-25T07:18:08.574Z,26.45
2022-07-25T07:19:10.780Z,26.52
2022-07-25T07:20:09.786Z,26.53
2022-07-25T07:21:21.203Z,26.67
2022-07-25T07:22:13.872Z,26.64
2022-07-25T07:23:18.040Z,26.66
2022-07-25T07:24:29.692Z,26.71
2022-07-25T07:25:14.402Z,26.79
2022-07-25T07:26:14.109Z,26.82
2022-07-25T07:27:14.061Z,26.88
2022-07-25T07:28:15.293Z,26.91
2022-07-25T07:29:15.922Z,27.04
2022-07-25T07:30:25.432Z,27.08
2022-07-25T07:31:26.387Z,27.25
2022-07-25T07:32:26.156Z,27.29
2022-07-25T07:33:27.383Z,27.4
2022-07-25T07:34:28.038Z,27.58
2022-07-25T07:35:29.391Z,27.68
2022-07-25T07:36:29.037Z,27.76
2022-07-25T07:37:40.129Z,27.82
2022-07-25T07:38:29.893Z,27.86
2022-07-25T07:39:29.807Z,27.94
2022-07-25T07:40:30.470Z,28
2022-07-25T07:41:33.015Z,28.08
2022-07-25T07:42:32.302Z,28.01
2022-07-25T07:43:35.445Z,28.1
2022-07-25T07:44:33.651Z,28.08
2022-07-25T07:45:34.293Z,28.15
2022-07-25T07:46:34.858Z,28.25
2022-07-25T07:47:35.004Z,28.25
2022-07-25T07:48:36.198Z,28.2
2022-07-25T07:49:50.287Z,28.23
2022-07-25T07:50:37.357Z,28.34
2022-07-25T07:51:37.993Z,28.33
2022-07-25T07:52:39.283Z,28.4
2022-07-25T07:53:40.518Z,28.41
2022-07-25T07:54:41.451Z,28.43
2022-07-25T07:55:41.969Z,28.46
2022-07-25T07:56:41.903Z,28.59
2022-07-25T07:57:43.118Z,28.6
2022-07-25T07:58:43.093Z,28.62
2022-07-25T07:59:44.056Z,28.82
2022-07-25T08:00:44.983Z,28.8
2022-07-25T08:01:44.830Z,28.89
2022-07-25T08:02:45.756Z,29.05
2022-07-25T08:03:46.350Z,29.18
2022-07-25T08:04:46.610Z,29.25
2022-07-25T08:05:46.845Z,29.39
2022-07-25T08:06:47.098Z,29.68
2022-07-25T08:07:48.316Z,29.83
2022-07-25T08:08:48.342Z,29.95
2022-07-25T08:09:49.267Z,30.02
2022-07-25T08:10:49.214Z,30.13
2022-07-25T08:11:50.142Z,30.14
2022-07-25T08:12:50.179Z,30.11
2022-07-25T08:13:51.402Z,30.17
2022-07-25T08:14:51.352Z,30.18
2022-07-25T08:15:51.894Z,30.13
2022-07-25T08:16:52.295Z,30.2
2022-07-25T08:17:52.323Z,30.24
2022-07-25T08:18:52.528Z,30.31
2022-07-25T08:19:53.468Z,30.49
2022-07-25T08:20:54.241Z,30.43
2022-07-25T08:21:55.187Z,30.43
2022-07-25T08:23:01.753Z,30.43
2022-07-25T08:23:55.692Z,30.39
2022-07-25T08:24:56.040Z,30.46
2022-07-25T08:25:56.679Z,30.43
2022-07-25T08:26:57.909Z,30.4
2022-07-25T08:27:58.551Z,30.55
2022-07-25T08:29:28.726Z,30.61
2022-07-25T08:29:59.271Z,30.7
2022-07-25T08:31:00.169Z,30.67
2022-07-25T08:32:00.700Z,30.73
2022-07-25T08:33:00.606Z,30.71
2022-07-25T08:34:01.564Z,30.85
2022-07-25T08:35:02.836Z,30.91
2022-07-25T08:36:03.088Z,31.07
2022-07-25T08:37:03.723Z,31.2
2022-07-25T08:38:04.940Z,31.29
2022-07-25T08:39:05.911Z,31.47
2022-07-25T08:40:06.128Z,31.54
2022-07-25T08:41:06.636Z,31.66
2022-07-25T08:42:11.401Z,31.85
2022-07-25T08:43:06.858Z,31.92
2022-07-25T08:44:09.151Z,32.05
2022-07-25T08:45:08.477Z,32.26
2022-07-25T08:46:08.884Z,32.24
2022-07-25T08:47:09.975Z,32.38
2022-07-25T08:48:09.572Z,32.41
2022-07-25T08:49:11.156Z,32.3
2022-07-25T08:50:11.562Z,32.31
2022-07-25T08:51:12.080Z,32.34
2022-07-25T08:52:12.589Z,32.24
2022-07-25T08:53:40.533Z,32.29
2022-07-25T08:54:39.602Z,32.3
2022-07-25T08:55:39.267Z,32.29
2022-07-25T08:56:40.517Z,32.38
2022-07-25T08:57:41.013Z,32.39
2022-07-25T08:58:41.232Z,32.37
2022-07-25T08:59:41.163Z,32.37
2022-07-25T09:00:42.153Z,32.31
2022-07-25T09:01:42.681Z,32.38
2022-07-25T09:02:43.008Z,32.3
2022-07-25T09:03:43.441Z,32.44
2022-07-25T09:04:43.822Z,32.51
2022-07-25T09:05:44.504Z,32.67
2022-07-25T09:06:47.825Z,32.88
2022-07-25T09:07:46.095Z,33.08
2022-07-25T09:08:45.802Z,33.42
2022-07-25T09:09:46.781Z,33.75
2022-07-25T09:10:47.286Z,34.06
2022-07-25T09:11:47.813Z,34.26
2022-07-25T09:12:48.038Z,34.62
2022-07-25T09:13:48.403Z,34.91
2022-07-25T09:14:48.727Z,35.1
2022-07-25T09:15:50.554Z,35.32
2022-07-25T09:16:51.319Z,35.6
2022-07-25T09:17:50.067Z,35.78
2022-07-25T09:18:50.585Z,36.14
2022-07-25T09:19:51.107Z,36.31
2022-07-25T09:20:50.777Z,36.41
2022-07-25T09:21:52.519Z,36.65
2022-07-25T09:22:53.000Z,36.8
2022-07-25T09:23:53.777Z,36.87
2022-07-25T09:24:54.434Z,36.99
2022-07-25T09:25:55.422Z,37.11
2022-07-25T09:26:55.946Z,37.22
2022-07-25T09:27:55.893Z,37.38
2022-07-25T09:28:56.144Z,37.43
2022-07-25T09:29:56.789Z,37.72
2022-07-25T09:30:58.664Z,37.72
2022-07-25T09:31:58.689Z,37.8
2022-07-25T09:32:59.338Z,37.82
2022-07-25T09:33:59.404Z,37.83
2022-07-25T09:34:59.834Z,37.85
2022-07-25T09:36:00.806Z,38.01
2022-07-25T09:37:02.087Z,38.04
2022-07-25T09:38:02.025Z,38.07
2022-07-25T09:39:02.288Z,38.27
2022-07-25T09:40:03.247Z,38.35
2022-07-25T09:41:03.546Z,38.35
2022-07-25T09:42:04.198Z,38.44
2022-07-25T09:43:04.849Z,38.44
2022-07-25T09:44:06.946Z,38.41
2022-07-25T09:45:06.342Z,38.39
2022-07-25T09:46:06.474Z,38.42
2022-07-25T09:47:06.727Z,38.51
2022-07-25T09:48:07.390Z,38.63
2022-07-25T09:49:08.584Z,38.69
2022-07-25T09:50:08.688Z,38.57
2022-07-25T09:51:08.956Z,38.75
2022-07-25T09:52:09.904Z,38.79
2022-07-25T09:53:10.829Z,38.81
2022-07-25T09:54:11.828Z,38.9
2022-07-25T09:55:12.407Z,38.87
2022-07-25T09:56:12.634Z,38.88
2022-07-25T09:57:12.586Z,38.92
2022-07-25T09:58:13.853Z,38.96
2022-07-25T09:59:13.804Z,39.05
2022-07-25T10:00:19.689Z,39.11
2022-07-25T10:01:14.857Z,39.01
2022-07-25T10:02:14.863Z,39.07
2022-07-25T10:03:15.316Z,39.1
2022-07-25T10:04:16.371Z,39.15
2022-07-25T10:05:16.592Z,39.08
2022-07-25T10:06:17.108Z,39.08
2022-07-25T10:07:17.626Z,39.2
2022-07-25T10:08:17.780Z,39.14
2022-07-25T10:09:18.018Z,39.2
2022-07-25T10:10:18.551Z,39.23
2022-07-25T10:11:18.787Z,39.26
2022-07-25T10:12:19.020Z,39.25
2022-07-25T10:13:19.251Z,39.33
2022-07-25T10:14:19.833Z,39.34
2022-07-25T10:15:20.063Z,39.3
2022-07-25T10:16:20.291Z,39.37
2022-07-25T10:17:20.900Z,39.38
2022-07-25T10:18:21.145Z,39.29
2022-07-25T10:19:21.796Z,39.45
2022-07-25T10:20:23.053Z,39.42
2022-07-25T10:21:32.409Z,39.46
2022-07-25T10:22:57.719Z,39.27
2022-07-25T10:23:24.304Z,39.37
2022-07-25T10:24:24.679Z,39.32
2022-07-25T10:25:25.356Z,39.38
2022-07-25T10:26:26.349Z,39.25
2022-07-25T10:27:27.283Z,39.41
2022-07-25T10:28:27.893Z,39.34
2022-07-25T10:29:29.008Z,39.46
2022-07-25T10:30:29.640Z,39.38
2022-07-25T10:31:30.170Z,39.39
2022-07-25T10:32:31.166Z,39.41
2022-07-25T10:33:31.411Z,39.48
2022-07-25T10:34:32.029Z,39.49
2022-07-25T10:35:33.008Z,39.33
2022-07-25T10:36:33.543Z,39.29
2022-07-25T10:37:33.192Z,39.29
2022-07-25T10:38:34.309Z,39.2
2022-07-25T10:39:35.009Z,39.14
2022-07-25T10:40:35.949Z,39.27
2022-07-25T10:41:35.898Z,39.2
2022-07-25T10:42:37.425Z,39.11
2022-07-25T10:43:37.947Z,39.14
2022-07-25T10:44:38.611Z,39.14
2022-07-25T10:45:44.071Z,39.19
2022-07-25T10:46:39.082Z,39.11
2022-07-25T10:47:39.371Z,39.12
2022-07-25T10:48:39.887Z,39.08
2022-07-25T10:50:13.779Z,39.01
2022-07-25T10:51:02.965Z,39.08
2022-07-25T10:52:02.249Z,39.04
2022-07-25T10:53:03.206Z,39.2
2022-07-25T10:54:03.430Z,39.19
2022-07-25T10:55:04.464Z,39.23
2022-07-25T10:56:12.051Z,39.27
2022-07-25T10:57:04.994Z,39.25
2022-07-25T10:58:22.732Z,39.26
2022-07-25T10:59:08.149Z,39.19
2022-07-25T11:00:07.635Z,39.11
2022-07-25T11:01:08.707Z,39.12
2022-07-25T11:02:09.482Z,39.14
2022-07-25T11:03:18.033Z,39.17
2022-07-25T11:04:10.953Z,39.15
2022-07-25T11:05:11.691Z,39.2
2022-07-25T11:06:11.927Z,39.26
2022-07-25T11:07:11.867Z,39.29
2022-07-25T11:08:27.049Z,39.32
2022-07-25T11:09:20.774Z,39.29
2022-07-25T11:10:13.516Z,39.3
2022-07-25T11:11:13.164Z,39.22
2022-07-25T11:12:14.686Z,39.05
2022-07-25T11:13:14.631Z,39.14
2022-07-25T11:14:15.276Z,39.04
2022-07-25T11:15:20.421Z,39.03
2022-07-25T11:16:17.169Z,38.98
2022-07-25T11:17:17.637Z,38.85
2022-07-25T11:18:18.215Z,38.7
2022-07-25T11:19:19.542Z,38.7
2022-07-25T11:20:18.203Z,38.72
2022-07-25T11:21:19.727Z,38.63
2022-07-25T11:22:19.974Z,38.5
2022-07-25T11:23:20.198Z,38.35
2022-07-25T11:24:20.842Z,38.41
2022-07-25T11:25:21.887Z,38.38
2022-07-25T11:26:22.809Z,38.41
2022-07-25T11:27:23.055Z,38.38
2022-07-25T11:28:23.995Z,38.27
2022-07-25T11:29:24.638Z,38.23
2022-07-25T11:30:25.943Z,38.27
2022-07-25T11:31:26.327Z,38.2
2022-07-25T11:32:26.809Z,38.17
2022-07-25T11:33:27.475Z,38
2022-07-25T11:34:27.439Z,38.12
2022-07-25T11:35:28.046Z,38.1
2022-07-25T11:36:29.280Z,38.16
2022-07-25T11:37:29.667Z,38.09
2022-07-25T11:38:31.041Z,38.16
2022-07-25T11:39:30.725Z,38.12
2022-07-25T11:40:30.646Z,38.07
2022-07-25T11:41:31.868Z,38.17
2022-07-25T11:42:33.091Z,38.19
2022-07-25T11:43:34.028Z,38.19
2022-07-25T11:44:34.545Z,38.25
2022-07-25T11:45:34.723Z,38.32
2022-07-25T11:46:35.412Z,38.34
2022-07-25T11:47:35.631Z,38.35
2022-07-25T11:48:37.029Z,38.35
2022-07-25T11:49:37.747Z,38.36
2022-07-25T11:50:38.700Z,38.35
2022-07-25T11:51:38.926Z,38.42
2022-07-25T11:52:39.174Z,38.44
2022-07-25T11:53:39.396Z,38.44
2022-07-25T11:54:40.645Z,38.48
2022-07-25T11:55:41.682Z,38.56
2022-07-25T11:56:49.937Z,38.5
2022-07-25T11:57:42.860Z,38.51
2022-07-25T11:58:43.799Z,38.47
2022-07-25T11:59:44.436Z,38.46
2022-07-25T12:00:44.082Z,38.51
2022-07-25T12:01:45.010Z,38.42
2022-07-25T12:02:45.958Z,38.51
2022-07-25T12:03:46.020Z,38.47
2022-07-25T12:04:46.765Z,38.48
2022-07-25T12:05:47.831Z,38.5
2022-07-25T12:06:48.065Z,38.5
2022-07-25T12:07:49.006Z,38.51
2022-07-25T12:08:50.226Z,38.65
2022-07-25T12:09:50.747Z,38.63
2022-07-25T12:10:51.693Z,38.58
2022-07-25T12:11:51.714Z,38.54
2022-07-25T12:12:52.963Z,38.48
2022-07-25T12:13:53.202Z,38.39
2022-07-25T12:14:53.421Z,38.32
2022-07-25T12:15:54.736Z,38.23
2022-07-25T12:16:55.072Z,38.17
2022-07-25T12:17:55.845Z,38.1
2022-07-25T12:18:56.164Z,38.09
2022-07-25T12:19:56.898Z,38.23
2022-07-25T12:20:56.728Z,38.22
2022-07-25T12:21:57.949Z,38.1
2022-07-25T12:22:58.177Z,38.29
2022-07-25T12:23:59.132Z,38.22
2022-07-25T12:24:59.357Z,38.2
2022-07-25T12:26:00.389Z,38.28
2022-07-25T12:27:00.630Z,38.34
2022-07-25T12:28:00.571Z,38.32
2022-07-25T12:29:01.536Z,38.34
2022-07-25T12:30:02.024Z,38.44
2022-07-25T12:31:03.090Z,38.38
2022-07-25T12:32:03.886Z,38.44
2022-07-25T12:33:04.143Z,38.48
2022-07-25T12:34:05.072Z,38.58
2022-07-25T12:35:05.363Z,38.62
2022-07-25T12:36:09.014Z,38.63
2022-07-25T12:37:06.248Z,38.63
2022-07-25T12:38:06.899Z,38.58
2022-07-25T12:39:08.792Z,38.57
2022-07-25T12:40:08.753Z,38.56
2022-07-25T12:41:08.706Z,38.63
2022-07-25T12:42:09.498Z,38.69
2022-07-25T12:43:10.764Z,38.76
2022-07-25T12:44:10.981Z,38.69
2022-07-25T12:45:11.225Z,38.63
2022-07-25T12:46:12.558Z,38.72
2022-07-25T12:47:12.454Z,38.69
2022-07-25T12:48:13.466Z,38.66
2022-07-25T12:49:15.273Z,38.72
2022-07-25T12:50:15.732Z,38.65
2022-07-25T12:51:16.393Z,38.57
2022-07-25T12:52:17.120Z,38.57
2022-07-25T12:53:18.047Z,38.65
2022-07-25T12:54:22.785Z,38.58
2022-07-25T12:55:18.169Z,38.56
2022-07-25T12:56:18.927Z,38.72
2022-07-25T12:57:19.529Z,38.73
2022-07-25T12:58:19.750Z,38.72
2022-07-25T12:59:20.693Z,38.7
2022-07-25T13:00:21.337Z,38.7
2022-07-25T13:01:21.760Z,38.85
2022-07-25T13:02:22.223Z,38.92
2022-07-25T13:03:23.008Z,39
2022-07-25T13:04:23.529Z,39.04